Time;durP1;ratioP1;P1;durP2;ratioP2;P2;SDS_P1;SDS_P2;PMS_P1;PMS_P2;Temp;Humidity;BMP_temperature;BMP_pressure;BME280_temperature;BME280_humidity;BME280_pressure;Samples;Min_cycle;Max_cycle;Signal;HPM_P1;HPM_P2
2023/12/13 00:01:30;;;;;;;6.75;2.10;;;;;;;;;;4847824;29;20051;-85
2023/12/13 00:04:01;;;;;;;4.55;1.77;;;;;;;;;;4823706;29;20042;-86
2023/12/13 00:06:31;;;;;;;5.00;1.80;;;;;;;;;;4830027;29;20061;-84
2023/12/13 00:09:02;;;;;;;8.90;2.13;;;;;;;;;;4828154;29;20054;-84
2023/12/13 00:11:33;;;;;;;5.28;2.20;;;;;;;;;;4830399;29;20057;-85
2023/12/13 00:14:03;;;;;;;8.45;2.35;;;;;;;;;;4817205;29;20058;-85
2023/12/13 00:16:34;;;;;;;7.35;1.90;;;;;;;;;;4840756;29;20053;-85
2023/12/13 00:19:06;;;;;;;4.82;1.88;;;;;;;;;;4841401;29;20058;-85
2023/12/13 00:21:36;;;;;;;7.82;2.13;;;;;;;;;;4838968;29;20565;-85
2023/12/13 00:24:08;;;;;;;5.25;1.63;;;;;;;;;;4841240;29;20057;-85
2023/12/13 00:26:39;;;;;;;7.78;2.10;;;;;;;;;;4824692;29;20830;-85
2023/12/13 00:29:10;;;;;;;3.17;1.73;;;;;;;;;;4839412;29;20042;-84
2023/12/13 00:31:40;;;;;;;8.73;1.92;;;;;;;;;;4831675;29;20085;-86
2023/12/13 00:34:10;;;;;;;5.78;2.20;;;;;;;;;;4831087;29;20057;-86
2023/12/13 00:36:40;;;;;;;8.02;2.25;;;;;;;;;;4830440;29;20076;-86
2023/12/13 00:39:11;;;;;;;4.88;1.95;;;;;;;;;;4828653;29;20061;-86
2023/12/13 00:41:42;;;;;;;6.82;2.10;;;;;;;;;;4821445;29;20168;-86
2023/12/13 00:44:12;;;;;;;6.32;1.85;;;;;;;;;;4823791;29;20061;-87
2023/12/13 00:46:43;;;;;;;6.18;2.38;;;;;;;;;;4809790;29;20084;-86
2023/12/13 00:49:13;;;;;;;6.00;2.13;;;;;;;;;;4824648;29;20498;-86
2023/12/13 00:51:44;;;;;;;3.83;2.10;;;;;;;;;;4833137;29;20046;-86
2023/12/13 00:54:15;;;;;;;5.78;1.90;;;;;;;;;;4833262;29;20053;-87
2023/12/13 00:56:46;;;;;;;4.75;1.63;;;;;;;;;;4843344;29;20397;-86
2023/12/13 00:59:16;;;;;;;6.55;2.35;;;;;;;;;;4845986;29;20053;-87
2023/12/13 01:01:48;;;;;;;9.65;2.35;;;;;;;;;;4834763;29;20046;-87
2023/12/13 01:04:18;;;;;;;4.97;1.70;;;;;;;;;;4833395;29;20426;-86
2023/12/13 01:06:49;;;;;;;6.82;2.30;;;;;;;;;;4831627;29;20050;-86
2023/12/13 01:09:19;;;;;;;6.15;2.30;;;;;;;;;;4839611;29;20051;-87
2023/12/13 01:11:54;;;;;;;3.78;2.30;;;;;;;;;;4832778;29;20050;-87
2023/12/13 01:14:25;;;;;;;10.85;2.15;;;;;;;;;;4834784;29;20045;-85
2023/12/13 01:16:55;;;;;;;7.85;2.15;;;;;;;;;;4831851;29;20062;-86
2023/12/13 01:19:26;;;;;;;12.02;1.92;;;;;;;;;;4832191;29;20394;-86
2023/12/13 01:21:57;;;;;;;8.20;3.22;;;;;;;;;;4827112;29;20545;-85
2023/12/13 01:24:28;;;;;;;7.07;1.58;;;;;;;;;;4824337;29;20355;-86
2023/12/13 01:27:00;;;;;;;5.93;2.55;;;;;;;;;;4837704;29;20509;-86
2023/12/13 01:29:30;;;;;;;4.22;2.22;;;;;;;;;;4835739;29;20057;-87
2023/12/13 01:32:00;;;;;;;7.97;2.58;;;;;;;;;;4828358;29;20919;-86
2023/12/13 01:34:31;;;;;;;6.78;2.20;;;;;;;;;;4829802;29;20062;-87
2023/12/13 01:37:02;;;;;;;5.55;2.88;;;;;;;;;;4830760;29;20609;-86
2023/12/13 01:39:33;;;;;;;5.03;2.08;;;;;;;;;;4836694;29;20069;-87
2023/12/13 01:45:41;;;;;;;6.68;2.33;;;;;;;;;;4833264;29;20050;-86
2023/12/13 01:48:12;;;;;;;7.30;2.20;;;;;;;;;;4829678;29;20061;-87
2023/12/13 01:50:43;;;;;;;8.57;1.90;;;;;;;;;;4831071;29;20710;-86
2023/12/13 01:53:15;;;;;;;8.30;2.55;;;;;;;;;;4830247;29;20058;-87
2023/12/13 01:55:46;;;;;;;7.72;2.58;;;;;;;;;;4827699;29;20042;-86
2023/12/13 01:58:19;;;;;;;6.13;2.45;;;;;;;;;;4832017;29;20054;-87
2023/12/13 02:00:52;;;;;;;8.43;1.92;;;;;;;;;;4830469;29;20409;-86
2023/12/13 02:03:23;;;;;;;10.00;2.33;;;;;;;;;;4830252;29;20050;-86
2023/12/13 02:05:54;;;;;;;9.63;2.42;;;;;;;;;;4837264;29;20062;-84
2023/12/13 02:08:24;;;;;;;7.28;1.70;;;;;;;;;;4841040;29;20476;-84
2023/12/13 02:10:56;;;;;;;6.60;1.90;;;;;;;;;;4844450;29;20393;-83
2023/12/13 02:13:27;;;;;;;5.97;2.47;;;;;;;;;;4841042;29;20046;-83
2023/12/13 02:15:58;;;;;;;6.75;2.78;;;;;;;;;;4835135;29;20054;-83
2023/12/13 02:18:28;;;;;;;6.25;2.25;;;;;;;;;;4832667;29;20046;-83
2023/12/13 02:20:59;;;;;;;8.95;2.33;;;;;;;;;;4834834;29;20073;-83
2023/12/13 02:23:28;;;;;;;7.85;3.35;;;;;;;;;;4830463;29;20050;-84
2023/12/13 02:26:05;;;;;;;6.05;2.63;;;;;;;;;;4823682;29;20046;-84
2023/12/13 02:28:36;;;;;;;8.48;2.38;;;;;;;;;;4823902;29;20062;-84
2023/12/13 02:31:08;;;;;;;7.60;2.00;;;;;;;;;;4824929;29;20406;-84
2023/12/13 02:33:43;;;;;;;8.35;2.40;;;;;;;;;;4823819;29;20533;-84
2023/12/13 02:36:13;;;;;;;6.53;2.55;;;;;;;;;;4825460;29;20050;-85
2023/12/13 02:38:44;;;;;;;5.47;2.28;;;;;;;;;;4807495;29;20084;-83
2023/12/13 02:41:14;;;;;;;6.72;3.00;;;;;;;;;;4823637;29;20058;-84
2023/12/13 02:43:46;;;;;;;10.65;2.40;;;;;;;;;;4826385;29;20046;-85
2023/12/13 02:50:40;;;;;;;6.15;2.20;;;;;;;;;;4835693;29;20406;-84
2023/12/13 02:53:11;;;;;;;7.60;2.70;;;;;;;;;;4855876;29;20506;-84
2023/12/13 02:55:41;;;;;;;6.65;2.70;;;;;;;;;;4835030;29;20046;-83
2023/12/13 02:58:11;;;;;;;6.22;2.60;;;;;;;;;;4833459;29;20046;-81
2023/12/13 03:00:42;;;;;;;11.45;2.97;;;;;;;;;;4832458;29;20053;-84
2023/12/13 03:03:12;;;;;;;7.15;2.33;;;;;;;;;;4832371;29;20049;-84
2023/12/13 03:05:43;;;;;;;9.90;2.78;;;;;;;;;;4831899;29;20057;-84
2023/12/13 03:08:16;;;;;;;6.93;2.72;;;;;;;;;;4834109;29;20516;-84
2023/12/13 03:10:47;;;;;;;8.00;3.00;;;;;;;;;;4834045;29;20073;-82
2023/12/13 03:13:18;;;;;;;7.18;2.78;;;;;;;;;;4831349;29;20050;-82
2023/12/13 03:15:49;;;;;;;6.05;2.25;;;;;;;;;;4833817;29;20414;-84
2023/12/13 03:18:19;;;;;;;7.75;4.00;;;;;;;;;;4832682;29;20046;-84
2023/12/13 03:20:50;;;;;;;7.13;2.50;;;;;;;;;;4835418;29;20046;-83
2023/12/13 03:23:20;;;;;;;10.35;2.60;;;;;;;;;;4840114;29;20057;-83
2023/12/13 03:25:52;;;;;;;5.85;2.80;;;;;;;;;;4841978;29;20046;-83
2023/12/13 03:28:22;;;;;;;8.02;2.90;;;;;;;;;;4839612;29;20085;-83
2023/12/13 03:30:54;;;;;;;6.70;3.47;;;;;;;;;;4840347;29;20054;-82
2023/12/13 03:33:25;;;;;;;7.47;3.10;;;;;;;;;;4839015;29;20053;-82
2023/12/13 03:35:55;;;;;;;9.43;2.70;;;;;;;;;;4823414;29;20054;-84
2023/12/13 03:38:25;;;;;;;5.55;2.50;;;;;;;;;;4838996;29;20054;-83
2023/12/13 03:40:55;;;;;;;5.63;2.50;;;;;;;;;;4838436;29;20054;-82
2023/12/13 03:43:25;;;;;;;7.88;2.63;;;;;;;;;;4839423;29;20065;-82
2023/12/13 03:45:56;;;;;;;11.20;3.60;;;;;;;;;;4838286;29;20062;-83
2023/12/13 03:48:26;;;;;;;8.50;3.88;;;;;;;;;;4838533;29;20046;-83
2023/12/13 03:50:57;;;;;;;4.35;2.33;;;;;;;;;;4842530;29;20050;-83
2023/12/13 03:53:28;;;;;;;9.07;4.60;;;;;;;;;;4842737;29;20046;-83
2023/12/13 03:55:59;;;;;;;11.82;4.07;;;;;;;;;;4842662;29;20054;-82
2023/12/13 03:58:29;;;;;;;8.38;4.43;;;;;;;;;;4842136;29;20050;-83
2023/12/13 04:01:00;;;;;;;9.65;4.13;;;;;;;;;;4841059;29;20057;-83
2023/12/13 04:03:33;;;;;;;11.48;4.82;;;;;;;;;;4840001;29;20050;-83
2023/12/13 04:06:05;;;;;;;8.18;4.68;;;;;;;;;;4842349;29;20046;-83
2023/12/13 04:08:35;;;;;;;10.80;3.97;;;;;;;;;;4840542;29;20050;-82
2023/12/13 04:11:06;;;;;;;9.00;3.75;;;;;;;;;;4841065;29;20521;-82
2023/12/13 04:13:36;;;;;;;9.70;3.58;;;;;;;;;;4842749;29;20050;-83
2023/12/13 04:16:08;;;;;;;12.35;3.97;;;;;;;;;;4840257;29;20054;-82
2023/12/13 04:18:38;;;;;;;9.20;3.13;;;;;;;;;;4843639;29;20057;-83
2023/12/13 04:21:09;;;;;;;6.25;3.38;;;;;;;;;;4846166;29;20474;-83
2023/12/13 04:23:39;;;;;;;5.70;3.17;;;;;;;;;;4845499;29;20053;-83
2023/12/13 04:26:09;;;;;;;9.98;2.90;;;;;;;;;;4843957;29;20064;-82
2023/12/13 04:28:39;;;;;;;8.15;3.33;;;;;;;;;;4844135;29;20054;-83
2023/12/13 04:31:09;;;;;;;10.98;3.95;;;;;;;;;;4845593;29;20050;-83
2023/12/13 04:33:40;;;;;;;7.25;3.15;;;;;;;;;;4845451;29;20050;-83
2023/12/13 04:36:10;;;;;;;8.60;3.00;;;;;;;;;;4845352;29;20054;-83
2023/12/13 04:38:40;;;;;;;6.75;3.03;;;;;;;;;;4845172;29;20045;-82
2023/12/13 04:41:10;;;;;;;5.47;2.55;;;;;;;;;;4843805;29;20060;-83
2023/12/13 04:43:42;;;;;;;7.18;2.60;;;;;;;;;;4842868;29;20080;-83
2023/12/13 04:46:13;;;;;;;5.30;2.53;;;;;;;;;;4843577;29;20065;-83
2023/12/13 04:48:44;;;;;;;6.68;2.55;;;;;;;;;;4845456;29;20042;-83
2023/12/13 04:51:14;;;;;;;5.95;3.58;;;;;;;;;;4845650;29;20050;-83
2023/12/13 04:53:44;;;;;;;5.40;3.13;;;;;;;;;;4845267;29;20056;-83
2023/12/13 04:56:13;;;;;;;6.28;2.78;;;;;;;;;;4843545;29;20054;-83
2023/12/13 04:58:46;;;;;;;4.72;2.30;;;;;;;;;;4845604;29;20054;-82
2023/12/13 05:01:16;;;;;;;8.82;2.13;;;;;;;;;;4844829;29;20397;-82
2023/12/13 05:03:46;;;;;;;6.03;2.67;;;;;;;;;;4845551;29;20054;-83
2023/12/13 05:06:19;;;;;;;4.97;2.38;;;;;;;;;;4843354;29;20053;-83
2023/12/13 05:08:52;;;;;;;4.65;2.42;;;;;;;;;;4845436;29;20057;-82
2023/12/13 05:11:22;;;;;;;8.23;2.85;;;;;;;;;;4843412;29;20054;-82
2023/12/13 05:13:52;;;;;;;5.78;2.33;;;;;;;;;;4842989;29;20512;-83
2023/12/13 05:16:22;;;;;;;6.55;2.83;;;;;;;;;;4844679;29;20050;-82
2023/12/13 05:18:52;;;;;;;7.10;2.00;;;;;;;;;;4844564;29;20054;-82
2023/12/13 05:21:22;;;;;;;5.43;2.55;;;;;;;;;;4843118;29;20112;-83
2023/12/13 05:23:52;;;;;;;7.32;3.13;;;;;;;;;;4844805;29;20053;-82
2023/12/13 05:26:22;;;;;;;6.22;2.67;;;;;;;;;;4844478;29;20050;-83
2023/12/13 05:28:54;;;;;;;6.18;2.42;;;;;;;;;;4845177;29;20057;-82
2023/12/13 05:31:25;;;;;;;9.70;2.50;;;;;;;;;;4844275;29;20050;-82
2023/12/13 05:33:55;;;;;;;5.55;2.10;;;;;;;;;;4844604;29;20057;-82
2023/12/13 05:36:26;;;;;;;5.65;2.45;;;;;;;;;;4844583;29;20072;-82
2023/12/13 05:38:56;;;;;;;7.78;2.42;;;;;;;;;;4842484;29;20072;-82
2023/12/13 05:41:25;;;;;;;8.35;1.75;;;;;;;;;;4844506;29;20421;-82
2023/12/13 05:43:55;;;;;;;7.53;3.28;;;;;;;;;;4842413;29;20058;-83
2023/12/13 05:46:26;;;;;;;8.68;2.58;;;;;;;;;;4844459;29;20058;-83
2023/12/13 05:48:56;;;;;;;7.50;2.28;;;;;;;;;;4844593;29;20078;-82
2023/12/13 05:51:26;;;;;;;6.22;2.30;;;;;;;;;;4842374;29;20056;-83
2023/12/13 05:53:56;;;;;;;10.38;3.13;;;;;;;;;;4844333;29;20050;-83
2023/12/13 05:56:27;;;;;;;6.13;2.70;;;;;;;;;;4844030;29;20061;-83
2023/12/13 05:58:57;;;;;;;5.65;2.10;;;;;;;;;;4842798;29;20058;-83
2023/12/13 06:01:27;;;;;;;6.97;3.28;;;;;;;;;;4844220;29;20528;-82
2023/12/13 06:03:57;;;;;;;4.88;2.92;;;;;;;;;;4843858;29;20061;-82
2023/12/13 06:06:27;;;;;;;4.55;2.35;;;;;;;;;;4844093;29;20067;-83
2023/12/13 06:08:57;;;;;;;8.02;2.85;;;;;;;;;;4843941;29;20053;-83
2023/12/13 06:11:28;;;;;;;8.48;2.90;;;;;;;;;;4844194;29;20050;-82
2023/12/13 06:13:59;;;;;;;4.93;2.70;;;;;;;;;;4845000;29;20482;-83
2023/12/13 07:14:32;;;;;;;7.63;3.25;;;;;;;;;;4999224;24;20058;-84
2023/12/13 07:17:03;;;;;;;6.50;3.35;;;;;;;;;;4825106;29;20061;-84
2023/12/13 07:19:34;;;;;;;5.70;3.20;;;;;;;;;;4823580;29;20054;-83
2023/12/13 07:22:05;;;;;;;10.07;3.58;;;;;;;;;;4822874;29;20525;-84
2023/12/13 07:24:36;;;;;;;5.50;2.95;;;;;;;;;;4824458;29;20058;-84
2023/12/13 07:27:07;;;;;;;11.82;3.28;;;;;;;;;;4823191;29;20518;-83
2023/12/13 07:29:37;;;;;;;8.93;3.60;;;;;;;;;;4824573;29;20054;-84
2023/12/13 07:32:08;;;;;;;13.10;3.30;;;;;;;;;;4824813;29;20046;-84
2023/12/13 07:34:41;;;;;;;8.85;3.10;;;;;;;;;;4807767;29;20054;-83
2023/12/13 07:37:11;;;;;;;7.10;3.30;;;;;;;;;;4824421;29;20046;-83
2023/12/13 07:39:42;;;;;;;6.38;2.97;;;;;;;;;;4824677;29;20046;-83
2023/12/13 07:42:12;;;;;;;7.53;3.38;;;;;;;;;;4822946;29;20058;-83
2023/12/13 07:44:43;;;;;;;7.97;3.55;;;;;;;;;;4824251;29;20522;-84
2023/12/13 07:47:14;;;;;;;8.63;3.28;;;;;;;;;;4823224;29;20065;-83
2023/12/13 07:49:44;;;;;;;6.65;3.13;;;;;;;;;;4824108;29;20061;-83
2023/12/13 07:52:15;;;;;;;6.20;2.83;;;;;;;;;;4824098;29;20054;-82
2023/12/13 07:54:45;;;;;;;8.02;2.95;;;;;;;;;;4824080;29;20046;-82
2023/12/13 07:57:17;;;;;;;7.93;3.03;;;;;;;;;;4824707;29;20073;-83
2023/12/13 07:59:47;;;;;;;7.15;3.35;;;;;;;;;;4824444;29;20050;-82
2023/12/13 08:02:20;;;;;;;9.38;3.17;;;;;;;;;;4824138;29;20181;-82
2023/12/13 08:04:52;;;;;;;8.00;3.13;;;;;;;;;;4822814;29;20073;-82
2023/12/13 08:07:23;;;;;;;7.80;3.60;;;;;;;;;;4824279;29;20065;-82
2023/12/13 08:09:54;;;;;;;7.00;3.20;;;;;;;;;;4823863;29;20057;-83
2023/12/13 08:12:24;;;;;;;6.57;2.70;;;;;;;;;;4824037;29;20386;-83
2023/12/13 08:14:54;;;;;;;8.20;3.05;;;;;;;;;;4823738;29;20063;-83
2023/12/13 08:17:25;;;;;;;5.95;3.33;;;;;;;;;;4823722;29;20059;-83
2023/12/13 08:19:59;;;;;;;9.18;3.40;;;;;;;;;;4823434;29;20050;-84
2023/12/13 08:22:29;;;;;;;7.55;3.35;;;;;;;;;;4824084;29;20050;-84
2023/12/13 08:24:59;;;;;;;9.50;3.88;;;;;;;;;;4822470;29;20059;-83
2023/12/13 08:27:29;;;;;;;7.50;3.60;;;;;;;;;;4822333;29;20058;-83
2023/12/13 08:29:59;;;;;;;5.72;3.40;;;;;;;;;;4823871;29;20061;-83
2023/12/13 08:32:29;;;;;;;11.00;3.65;;;;;;;;;;4824398;29;20058;-83
2023/12/13 08:34:59;;;;;;;7.65;2.97;;;;;;;;;;4823792;29;20043;-83
2023/12/13 08:37:29;;;;;;;6.22;3.30;;;;;;;;;;4824342;29;20059;-83
2023/12/13 08:40:00;;;;;;;10.07;3.78;;;;;;;;;;4824047;29;20057;-84
2023/12/13 08:42:30;;;;;;;8.75;3.45;;;;;;;;;;4823669;29;20054;-83
2023/12/13 08:45:10;;;;;;;8.20;3.08;;;;;;;;;;4824067;29;20051;-81
2023/12/13 08:47:40;;;;;;;6.57;3.22;;;;;;;;;;4823876;29;20046;-81
2023/12/13 08:50:10;;;;;;;9.85;3.55;;;;;;;;;;4823892;29;20050;-82
2023/12/13 08:52:41;;;;;;;9.50;3.50;;;;;;;;;;4823258;29;20053;-80
2023/12/13 08:55:14;;;;;;;8.35;3.40;;;;;;;;;;4824282;29;20446;-83
2023/12/13 08:57:45;;;;;;;9.95;3.58;;;;;;;;;;4823383;29;20050;-83
2023/12/13 09:00:15;;;;;;;11.40;3.70;;;;;;;;;;4823310;29;20046;-83
2023/12/13 09:02:45;;;;;;;9.43;4.25;;;;;;;;;;4823938;29;20069;-84
2023/12/13 09:05:16;;;;;;;8.00;3.45;;;;;;;;;;4825603;29;20054;-83
2023/12/13 09:07:46;;;;;;;7.85;3.28;;;;;;;;;;4810502;29;20057;-83
2023/12/13 09:10:15;;;;;;;6.47;3.58;;;;;;;;;;4826623;29;20049;-83
2023/12/13 09:12:45;;;;;;;10.95;3.08;;;;;;;;;;4826437;29;20046;-84
2023/12/13 09:15:18;;;;;;;6.97;3.03;;;;;;;;;;4826516;29;20061;-83
2023/12/13 09:17:48;;;;;;;7.65;3.17;;;;;;;;;;4833520;29;20046;-83
2023/12/13 09:20:18;;;;;;;6.05;2.40;;;;;;;;;;4844587;29;20401;-84
2023/12/13 09:22:50;;;;;;;9.32;2.80;;;;;;;;;;4840200;29;20046;-83
2023/12/13 09:25:20;;;;;;;8.57;3.55;;;;;;;;;;4826247;29;20047;-84
2023/12/13 09:27:51;;;;;;;11.45;3.58;;;;;;;;;;4825270;29;20061;-82
2023/12/13 09:30:21;;;;;;;9.20;2.40;;;;;;;;;;4824971;29;20411;-83
2023/12/13 09:32:51;;;;;;;8.40;3.05;;;;;;;;;;4826399;29;20058;-83
2023/12/13 09:35:21;;;;;;;7.07;2.67;;;;;;;;;;4826408;29;20054;-85
2023/12/13 09:37:51;;;;;;;6.82;3.05;;;;;;;;;;4826158;29;20053;-84
2023/12/13 09:40:22;;;;;;;9.90;2.92;;;;;;;;;;4823977;29;20058;-84
2023/12/13 09:42:54;;;;;;;12.98;3.17;;;;;;;;;;4824979;29;20489;-84
2023/12/13 09:45:24;;;;;;;10.70;2.80;;;;;;;;;;4824223;29;20046;-83
2023/12/13 09:47:55;;;;;;;7.75;2.97;;;;;;;;;;4824573;29;20059;-85
2023/12/13 09:50:26;;;;;;;5.82;2.85;;;;;;;;;;4825278;29;20058;-85
2023/12/13 09:52:56;;;;;;;18.10;3.03;;;;;;;;;;4828117;29;20069;-84
2023/12/13 09:55:27;;;;;;;9.00;3.22;;;;;;;;;;4829406;29;20067;-84
2023/12/13 09:57:58;;;;;;;12.43;3.22;;;;;;;;;;4819270;29;20486;-84
2023/12/13 10:00:27;;;;;;;8.50;2.95;;;;;;;;;;4804578;29;20517;-84
2023/12/13 10:02:58;;;;;;;10.10;2.72;;;;;;;;;;4807060;29;20051;-84
2023/12/13 10:05:31;;;;;;;9.45;2.60;;;;;;;;;;4805447;29;20079;-84
2023/12/13 10:08:03;;;;;;;9.52;2.70;;;;;;;;;;4805877;29;20059;-84
2023/12/13 10:10:35;;;;;;;9.15;2.67;;;;;;;;;;4822474;29;20050;-86
2023/12/13 10:13:07;;;;;;;5.05;2.65;;;;;;;;;;4823521;29;20066;-85
2023/12/13 10:15:37;;;;;;;;;;;;;;;;;;4825283;29;20042;-85
2023/12/13 10:18:07;;;;;;;11.25;2.58;;;;;;;;;;4825484;29;20380;-86
2023/12/13 10:20:37;;;;;;;6.95;2.85;;;;;;;;;;4825315;29;20082;-86
2023/12/13 10:23:07;;;;;;;10.25;1.85;;;;;;;;;;4825823;29;20402;-84
2023/12/13 10:25:38;;;;;;;5.10;2.03;;;;;;;;;;4816139;29;20406;-84
2023/12/13 10:28:09;;;;;;;6.93;2.30;;;;;;;;;;4820604;29;20054;-85
2023/12/13 10:30:40;;;;;;;6.63;3.88;;;;;;;;;;4819070;29;20062;-85
2023/12/13 10:33:10;;;;;;;6.25;2.30;;;;;;;;;;4828435;29;20514;-85
2023/12/13 10:35:41;;;;;;;4.55;1.95;;;;;;;;;;4817953;29;20050;-85
2023/12/13 10:38:14;;;;;;;5.40;1.90;;;;;;;;;;4816211;29;20073;-85
2023/12/13 10:40:46;;;;;;;2.70;1.65;;;;;;;;;;4816551;29;20043;-86
2023/12/13 10:43:16;;;;;;;;;;;;;;;;;;4816116;29;20406;-85
2023/12/13 10:46:00;;;;;;;5.28;1.70;;;;;;;;;;4816427;29;19929;-86
2023/12/13 10:48:37;;;;;;;5.85;2.55;;;;;;;;;;4814781;29;20054;-82
2023/12/13 10:51:07;;;;;;;5.18;2.63;;;;;;;;;;4813563;29;20039;-82
2023/12/13 10:53:38;;;;;;;5.68;2.47;;;;;;;;;;4805570;29;20050;-83
2023/12/13 10:56:11;;;;;;;8.18;1.90;;;;;;;;;;4804378;29;20529;-82
2023/12/13 10:58:45;;;;;;;5.07;2.35;;;;;;;;;;4805828;29;20490;-84
2023/12/13 11:01:18;;;;;;;6.50;2.58;;;;;;;;;;4804345;29;20058;-84
2023/12/13 11:03:59;;;;;;;3.95;2.15;;;;;;;;;;4804340;29;20042;-85
2023/12/13 11:06:30;;;;;;;3.42;1.80;;;;;;;;;;4804436;29;20059;-86
2023/12/13 11:09:23;;;;;;;3.13;1.60;;;;;;;;;;4821743;29;20047;-86
2023/12/13 11:11:57;;;;;;;4.82;2.00;;;;;;;;;;4823441;29;20054;-86
2023/12/13 11:14:27;;;;;;;3.58;1.67;;;;;;;;;;4823148;29;20069;-85
2023/12/13 11:16:58;;;;;;;4.35;1.80;;;;;;;;;;4822878;29;20054;-85
2023/12/13 11:19:30;;;;;;;2.95;2.10;;;;;;;;;;4823541;29;20051;-86
2023/12/13 11:22:06;;;;;;;5.30;2.45;;;;;;;;;;4823081;29;20510;-84
2023/12/13 11:24:36;;;;;;;7.40;2.22;;;;;;;;;;4819524;29;20050;-86
2023/12/13 11:27:15;;;;;;;5.30;2.17;;;;;;;;;;4813865;29;20059;-85
2023/12/13 11:29:47;;;;;;;5.55;2.10;;;;;;;;;;4814946;29;20062;-85
2023/12/13 11:32:33;;;;;;;4.78;2.28;;;;;;;;;;4812592;29;20053;-84
2023/12/13 11:35:18;;;;;;;6.32;2.17;;;;;;;;;;4814350;29;20062;-86
2023/12/13 11:37:54;;;;;;;7.65;1.70;;;;;;;;;;4815215;29;20043;-84
2023/12/13 11:40:24;;;;;;;4.47;1.40;;;;;;;;;;4814323;29;20510;-85
2023/12/13 11:42:55;;;;;;;2.90;1.20;;;;;;;;;;4812837;29;20437;-85
2023/12/13 11:45:25;;;;;;;5.25;2.35;;;;;;;;;;4808056;29;20063;-86
2023/12/13 11:47:55;;;;;;;3.10;1.40;;;;;;;;;;4814385;29;20042;-86
2023/12/13 11:50:25;;;;;;;5.38;1.80;;;;;;;;;;4809257;29;20169;-87
2023/12/13 11:52:55;;;;;;;5.72;1.63;;;;;;;;;;4818962;29;20065;-85
2023/12/13 11:55:26;;;;;;;3.60;1.75;;;;;;;;;;4822005;29;20057;-87
2023/12/13 11:57:58;;;;;;;1.85;1.55;;;;;;;;;;4806046;29;20061;-87
2023/12/13 12:00:28;;;;;;;2.33;1.55;;;;;;;;;;4805052;29;20051;-86
2023/12/13 12:02:58;;;;;;;3.75;1.60;;;;;;;;;;4809455;29;20055;-87
2023/12/13 12:05:29;;;;;;;4.05;1.90;;;;;;;;;;4823171;29;20042;-87
2023/12/13 12:08:01;;;;;;;5.43;2.72;;;;;;;;;;4819100;29;20094;-86
2023/12/13 12:10:32;;;;;;;3.05;1.27;;;;;;;;;;4823169;29;20507;-86
2023/12/13 12:13:03;;;;;;;2.72;1.85;;;;;;;;;;4823559;29;20054;-88
2023/12/13 12:15:36;;;;;;;2.35;1.30;;;;;;;;;;4821669;29;20505;-88
2023/12/13 12:18:07;;;;;;;3.15;1.60;;;;;;;;;;4824340;29;20050;-86
2023/12/13 12:20:38;;;;;;;2.75;1.95;;;;;;;;;;4822313;29;20058;-87
2023/12/13 12:23:10;;;;;;;2.75;1.00;;;;;;;;;;4822850;29;20438;-87
2023/12/13 12:25:42;;;;;;;2.72;1.60;;;;;;;;;;4823246;29;20042;-88
2023/12/13 12:28:13;;;;;;;4.22;1.60;;;;;;;;;;4814713;29;20055;-88
2023/12/13 12:30:44;;;;;;;3.92;1.52;;;;;;;;;;4807727;29;20046;-89
2023/12/13 12:33:16;;;;;;;3.63;1.33;;;;;;;;;;4851638;29;20050;-87
2023/12/13 12:35:46;;;;;;;4.80;1.48;;;;;;;;;;4821625;29;20219;-87
2023/12/13 12:38:16;;;;;;;4.70;1.90;;;;;;;;;;4823539;29;20046;-86
2023/12/13 12:40:48;;;;;;;3.08;1.38;;;;;;;;;;4824155;29;20166;-85
2023/12/13 12:43:20;;;;;;;4.10;1.30;;;;;;;;;;4826379;29;20054;-87
2023/12/13 12:45:51;;;;;;;2.03;1.38;;;;;;;;;;4826216;29;20046;-86
2023/12/13 12:48:21;;;;;;;3.42;1.50;;;;;;;;;;4826367;29;20050;-87
2023/12/13 12:50:52;;;;;;;3.38;1.42;;;;;;;;;;4825223;29;20057;-85
2023/12/13 12:53:22;;;;;;;4.10;1.40;;;;;;;;;;4826054;29;20050;-86
2023/12/13 12:55:55;;;;;;;3.30;1.50;;;;;;;;;;4826206;29;20054;-85
2023/12/13 12:58:25;;;;;;;3.67;1.52;;;;;;;;;;4825851;29;20057;-86
2023/12/13 13:00:56;;;;;;;3.72;1.40;;;;;;;;;;4825096;29;20058;-86
2023/12/13 13:03:26;;;;;;;3.40;1.10;;;;;;;;;;4826478;29;20520;-84
2023/12/13 13:05:57;;;;;;;2.83;1.67;;;;;;;;;;4824978;29;20065;-85
2023/12/13 13:08:27;;;;;;;4.05;1.38;;;;;;;;;;4854794;29;20065;-86
2023/12/13 13:10:57;;;;;;;2.75;1.60;;;;;;;;;;4825515;29;20065;-87
2023/12/13 13:13:27;;;;;;;2.97;1.33;;;;;;;;;;4822918;29;20059;-84
2023/12/13 13:15:57;;;;;;;4.30;1.58;;;;;;;;;;4825739;29;20050;-88
2023/12/13 13:18:28;;;;;;;2.53;1.15;;;;;;;;;;4824068;29;20425;-85
2023/12/13 13:21:00;;;;;;;5.68;1.35;;;;;;;;;;4825821;29;20502;-86
2023/12/13 13:23:31;;;;;;;3.83;1.45;;;;;;;;;;4823611;29;20065;-86
2023/12/13 13:26:04;;;;;;;5.55;1.60;;;;;;;;;;4824168;29;20066;-86
2023/12/13 13:28:35;;;;;;;2.70;1.40;;;;;;;;;;4824238;29;20062;-85
2023/12/13 13:31:06;;;;;;;4.18;1.30;;;;;;;;;;4824203;29;20046;-85
2023/12/13 13:33:38;;;;;;;2.75;1.45;;;;;;;;;;4822068;29;20525;-84
2023/12/13 13:36:11;;;;;;;4.15;1.45;;;;;;;;;;4821842;29;20061;-84
2023/12/13 13:38:41;;;;;;;5.45;1.65;;;;;;;;;;4824015;29;20057;-83
2023/12/13 13:41:11;;;;;;;2.35;1.90;;;;;;;;;;4822288;29;20055;-83
2023/12/13 13:43:42;;;;;;;3.03;1.80;;;;;;;;;;4824078;29;20050;-84
2023/12/13 13:46:12;;;;;;;4.30;1.50;;;;;;;;;;4823280;29;20061;-85
2023/12/13 13:48:42;;;;;;;1.83;1.20;;;;;;;;;;4838480;29;20517;-85
2023/12/13 13:51:13;;;;;;;2.70;1.75;;;;;;;;;;4823568;29;20055;-84
2023/12/13 13:53:44;;;;;;;2.28;1.35;;;;;;;;;;4823226;29;20050;-84
2023/12/13 13:56:14;;;;;;;1.63;1.42;;;;;;;;;;4834590;29;20054;-85
2023/12/13 13:58:52;;;;;;;3.28;1.27;;;;;;;;;;4841819;29;20073;-85
2023/12/13 14:01:23;;;;;;;3.60;1.23;;;;;;;;;;4843277;29;20501;-86
2023/12/13 14:03:53;;;;;;;2.25;1.33;;;;;;;;;;4825252;29;20061;-85
2023/12/13 14:06:24;;;;;;;3.03;1.60;;;;;;;;;;4823793;29;20050;-86
2023/12/13 14:08:55;;;;;;;2.35;0.90;;;;;;;;;;4824684;29;20417;-86
2023/12/13 14:11:26;;;;;;;3.30;1.40;;;;;;;;;;4825018;29;20046;-83
2023/12/13 14:13:56;;;;;;;2.72;1.45;;;;;;;;;;4825014;29;20059;-86
2023/12/13 14:16:26;;;;;;;2.95;1.27;;;;;;;;;;4825385;29;20054;-84
2023/12/13 14:18:57;;;;;;;6.63;1.27;;;;;;;;;;4823142;29;20055;-83
2023/12/13 14:21:29;;;;;;;2.53;1.23;;;;;;;;;;4823850;29;20065;-83
2023/12/13 14:23:59;;;;;;;5.38;1.83;;;;;;;;;;4824273;29;20054;-82
2023/12/13 14:26:31;;;;;;;3.00;1.70;;;;;;;;;;4824962;29;20061;-85
2023/12/13 14:29:01;;;;;;;4.53;1.63;;;;;;;;;;4824792;29;20046;-85
2023/12/13 14:31:31;;;;;;;3.25;1.40;;;;;;;;;;4824768;29;20513;-84
2023/12/13 14:34:02;;;;;;;2.15;1.65;;;;;;;;;;4824825;29;20061;-84
2023/12/13 14:36:32;;;;;;;1.65;1.30;;;;;;;;;;4825158;29;20054;-83
2023/12/13 14:39:04;;;;;;;2.63;1.60;;;;;;;;;;4823082;29;20063;-84
2023/12/13 14:41:35;;;;;;;4.88;1.60;;;;;;;;;;4824635;29;20046;-83
2023/12/13 14:44:05;;;;;;;4.72;1.58;;;;;;;;;;4825083;29;20050;-83
2023/12/13 14:46:39;;;;;;;5.13;2.00;;;;;;;;;;4824662;29;20501;-85
2023/12/13 14:49:10;;;;;;;2.97;1.88;;;;;;;;;;4824090;29;20050;-84
2023/12/13 14:51:42;;;;;;;8.07;2.78;;;;;;;;;;4822142;29;20054;-85
2023/12/13 14:54:12;;;;;;;;;;;;;;;;;;4831201;29;20398;-84
2023/12/13 14:56:43;;;;;;;2.30;1.23;;;;;;;;;;4822431;29;19924;-83
2023/12/13 14:59:13;;;;;;;3.65;1.80;;;;;;;;;;4824143;29;20050;-84
2023/12/13 15:01:46;;;;;;;3.83;1.20;;;;;;;;;;4823577;29;20062;-84
2023/12/13 15:04:16;;;;;;;2.28;1.17;;;;;;;;;;4822285;29;20066;-85
2023/12/13 15:06:47;;;;;;;6.05;1.17;;;;;;;;;;4820334;29;20065;-85
2023/12/13 15:09:17;;;;;;;1.70;1.25;;;;;;;;;;4822890;29;20077;-84
2023/12/13 15:11:47;;;;;;;1.75;1.52;;;;;;;;;;4823895;29;20053;-83
2023/12/13 15:14:17;;;;;;;2.33;1.40;;;;;;;;;;4824100;29;20058;-83
2023/12/13 15:16:48;;;;;;;1.52;1.20;;;;;;;;;;4824545;29;20513;-85
2023/12/13 15:19:18;;;;;;;5.53;1.15;;;;;;;;;;4823990;29;20065;-85
2023/12/13 15:21:49;;;;;;;3.30;1.02;;;;;;;;;;4822245;29;20058;-84
2023/12/13 15:24:20;;;;;;;3.25;1.35;;;;;;;;;;4823735;29;20057;-84
2023/12/13 15:26:50;;;;;;;1.45;1.10;;;;;;;;;;4823666;29;20073;-85
2023/12/13 15:29:20;;;;;;;3.63;1.20;;;;;;;;;;4822559;29;20478;-86
2023/12/13 15:31:50;;;;;;;2.40;1.10;;;;;;;;;;4823967;29;20062;-85
2023/12/13 15:34:22;;;;;;;1.73;1.00;;;;;;;;;;4823907;29;20050;-84
2023/12/13 15:36:52;;;;;;;3.95;0.80;;;;;;;;;;4823435;29;20418;-84
2023/12/13 15:39:22;;;;;;;4.03;1.58;;;;;;;;;;4821765;29;20065;-85
2023/12/13 15:41:52;;;;;;;4.40;1.35;;;;;;;;;;4821550;29;20058;-82
2023/12/13 15:44:24;;;;;;;2.30;0.80;;;;;;;;;;4824121;29;20394;-84
2023/12/13 15:46:55;;;;;;;;;;;;;;;;;;4822631;29;20054;-85
2023/12/13 15:49:25;;;;;;;2.10;0.95;;;;;;;;;;4851963;29;19924;-83
2023/12/13 15:51:56;;;;;;;3.28;0.60;;;;;;;;;;4822125;29;20422;-82
2023/12/13 15:54:27;;;;;;;1.63;0.95;;;;;;;;;;4823640;29;20054;-84
2023/12/13 15:57:00;;;;;;;6.63;1.00;;;;;;;;;;4821550;29;20054;-86
2023/12/13 15:59:30;;;;;;;2.92;1.20;;;;;;;;;;4823435;29;20501;-84
2023/12/13 16:02:04;;;;;;;3.53;1.55;;;;;;;;;;4823134;29;20095;-84
2023/12/13 16:04:34;;;;;;;3.83;1.38;;;;;;;;;;4823787;29;20049;-84
2023/12/13 16:07:04;;;;;;;3.20;1.20;;;;;;;;;;4823557;29;20046;-84
2023/12/13 16:09:34;;;;;;;2.35;1.17;;;;;;;;;;4836851;29;20058;-85
2023/12/13 16:12:08;;;;;;;1.40;1.10;;;;;;;;;;4823793;29;20050;-85